sensor_id;sensor_type;location;lat;lon;timestamp;P1;durP1;ratioP1;P2;durP2;ratioP2
24421;SDS011;12600;53.326;-6.298;2024-01-06T00:01:32;18.55;;;5.07;;
24421;SDS011;12600;53.326;-6.298;2024-01-06T00:04:21;15.02;;;6.53;;
24421;SDS011;12600;53.326;-6.298;2024-01-06T00:07:10;17.45;;;6.25;;
24421;SDS011;12600;53.326;-6.298;2024-01-06T00:10:00;14.27;;;5.85;;
24421;SDS011;12600;53.326;-6.298;2024-01-06T00:12:50;12.93;;;5.13;;
24421;SDS011;12600;53.326;-6.298;2024-01-06T00:15:41;10.07;;;4.55;;
24421;SDS011;12600;53.326;-6.298;2024-01-06T00:18:30;15.13;;;5.57;;
24421;SDS011;12600;53.326;-6.298;2024-01-06T00:21:20;17.10;;;6.45;;
24421;SDS011;12600;53.326;-6.298;2024-01-06T00:24:09;9.07;;;4.13;;
24421;SDS011;12600;53.326;-6.298;2024-01-06T00:26:59;16.58;;;5.53;;
24421;SDS011;12600;53.326;-6.298;2024-01-06T00:29:48;13.00;;;4.95;;
24421;SDS011;12600;53.326;-6.298;2024-01-06T00:32:39;13.63;;;4.88;;
24421;SDS011;12600;53.326;-6.298;2024-01-06T00:35:28;14.00;;;4.68;;
24421;SDS011;12600;53.326;-6.298;2024-01-06T00:38:18;10.35;;;4.75;;
24421;SDS011;12600;53.326;-6.298;2024-01-06T00:41:07;11.95;;;4.18;;
24421;SDS011;12600;53.326;-6.298;2024-01-06T00:43:57;14.13;;;4.57;;
24421;SDS011;12600;53.326;-6.298;2024-01-06T00:46:46;14.25;;;4.95;;
24421;SDS011;12600;53.326;-6.298;2024-01-06T00:49:37;13.82;;;4.63;;
24421;SDS011;12600;53.326;-6.298;2024-01-06T00:52:26;14.52;;;5.38;;
24421;SDS011;12600;53.326;-6.298;2024-01-06T00:55:16;17.25;;;5.60;;
24421;SDS011;12600;53.326;-6.298;2024-01-06T00:58:05;10.63;;;3.53;;
24421;SDS011;12600;53.326;-6.298;2024-01-06T01:00:56;16.20;;;4.82;;
24421;SDS011;12600;53.326;-6.298;2024-01-06T01:03:45;24.30;;;4.93;;
24421;SDS011;12600;53.326;-6.298;2024-01-06T01:06:37;13.75;;;4.97;;
24421;SDS011;12600;53.326;-6.298;2024-01-06T01:09:27;11.32;;;5.25;;
24421;SDS011;12600;53.326;-6.298;2024-01-06T01:12:16;13.88;;;5.32;;
24421;SDS011;12600;53.326;-6.298;2024-01-06T01:15:06;10.35;;;5.10;;
24421;SDS011;12600;53.326;-6.298;2024-01-06T01:17:56;14.60;;;5.68;;
24421;SDS011;12600;53.326;-6.298;2024-01-06T01:20:46;16.35;;;5.32;;
24421;SDS011;12600;53.326;-6.298;2024-01-06T01:23:36;11.95;;;4.68;;
24421;SDS011;12600;53.326;-6.298;2024-01-06T01:26:26;15.65;;;5.43;;
24421;SDS011;12600;53.326;-6.298;2024-01-06T01:29:15;12.05;;;5.47;;
24421;SDS011;12600;53.326;-6.298;2024-01-06T01:32:07;17.88;;;5.53;;
24421;SDS011;12600;53.326;-6.298;2024-01-06T01:34:56;12.65;;;5.38;;
24421;SDS011;12600;53.326;-6.298;2024-01-06T01:37:46;15.38;;;5.15;;
24421;SDS011;12600;53.326;-6.298;2024-01-06T01:40:36;9.95;;;4.68;;
24421;SDS011;12600;53.326;-6.298;2024-01-06T01:43:26;13.07;;;4.40;;
24421;SDS011;12600;53.326;-6.298;2024-01-06T01:46:16;16.92;;;5.32;;
24421;SDS011;12600;53.326;-6.298;2024-01-06T01:49:05;10.77;;;3.35;;
24421;SDS011;12600;53.326;-6.298;2024-01-06T01:51:55;16.75;;;5.78;;
24421;SDS011;12600;53.326;-6.298;2024-01-06T01:54:45;12.95;;;5.80;;
24421;SDS011;12600;53.326;-6.298;2024-01-06T01:57:37;17.00;;;4.88;;
24421;SDS011;12600;53.326;-6.298;2024-01-06T02:00:27;8.90;;;4.53;;
24421;SDS011;12600;53.326;-6.298;2024-01-06T02:03:17;11.00;;;5.32;;
24421;SDS011;12600;53.326;-6.298;2024-01-06T02:06:06;16.15;;;5.03;;
24421;SDS011;12600;53.326;-6.298;2024-01-06T02:08:56;10.77;;;3.80;;
24421;SDS011;12600;53.326;-6.298;2024-01-06T02:11:45;16.05;;;5.22;;
24421;SDS011;12600;53.326;-6.298;2024-01-06T02:14:36;13.40;;;4.50;;
24421;SDS011;12600;53.326;-6.298;2024-01-06T02:17:25;17.73;;;5.93;;
24421;SDS011;12600;53.326;-6.298;2024-01-06T02:20:15;18.10;;;4.72;;
24421;SDS011;12600;53.326;-6.298;2024-01-06T02:23:08;10.93;;;4.30;;
24421;SDS011;12600;53.326;-6.298;2024-01-06T02:25:58;12.80;;;4.53;;
24421;SDS011;12600;53.326;-6.298;2024-01-06T02:28:47;14.93;;;4.20;;
24421;SDS011;12600;53.326;-6.298;2024-01-06T02:31:36;15.80;;;4.90;;
24421;SDS011;12600;53.326;-6.298;2024-01-06T02:34:26;13.57;;;4.63;;
24421;SDS011;12600;53.326;-6.298;2024-01-06T02:37:15;12.38;;;5.35;;
24421;SDS011;12600;53.326;-6.298;2024-01-06T02:40:07;17.58;;;5.32;;
24421;SDS011;12600;53.326;-6.298;2024-01-06T02:42:57;13.80;;;4.95;;
24421;SDS011;12600;53.326;-6.298;2024-01-06T02:45:47;12.77;;;4.53;;
24421;SDS011;12600;53.326;-6.298;2024-01-06T02:48:37;13.13;;;4.88;;
24421;SDS011;12600;53.326;-6.298;2024-01-06T02:51:26;15.88;;;5.68;;
24421;SDS011;12600;53.326;-6.298;2024-01-06T02:54:16;9.73;;;4.63;;
24421;SDS011;12600;53.326;-6.298;2024-01-06T02:57:07;12.93;;;4.88;;
24421;SDS011;12600;53.326;-6.298;2024-01-06T02:59:56;10.60;;;5.35;;
24421;SDS011;12600;53.326;-6.298;2024-01-06T03:02:46;13.20;;;5.03;;
24421;SDS011;12600;53.326;-6.298;2024-01-06T03:05:35;17.05;;;5.32;;
24421;SDS011;12600;53.326;-6.298;2024-01-06T03:08:25;12.50;;;5.18;;
24421;SDS011;12600;53.326;-6.298;2024-01-06T03:11:14;24.02;;;5.43;;
24421;SDS011;12600;53.326;-6.298;2024-01-06T03:14:05;16.67;;;5.45;;
24421;SDS011;12600;53.326;-6.298;2024-01-06T03:16:54;14.25;;;5.13;;
24421;SDS011;12600;53.326;-6.298;2024-01-06T03:19:44;17.38;;;5.05;;
24421;SDS011;12600;53.326;-6.298;2024-01-06T03:22:33;12.38;;;4.38;;
24421;SDS011;12600;53.326;-6.298;2024-01-06T03:25:23;11.43;;;4.93;;
24421;SDS011;12600;53.326;-6.298;2024-01-06T03:28:12;12.52;;;4.70;;
24421;SDS011;12600;53.326;-6.298;2024-01-06T03:31:03;15.45;;;4.90;;
24421;SDS011;12600;53.326;-6.298;2024-01-06T03:33:52;11.43;;;4.43;;
24421;SDS011;12600;53.326;-6.298;2024-01-06T03:36:43;19.15;;;5.50;;
24421;SDS011;12600;53.326;-6.298;2024-01-06T03:39:32;18.42;;;6.30;;
24421;SDS011;12600;53.326;-6.298;2024-01-06T03:42:22;23.98;;;6.03;;
24421;SDS011;12600;53.326;-6.298;2024-01-06T03:45:11;13.77;;;5.00;;
24421;SDS011;12600;53.326;-6.298;2024-01-06T03:48:02;12.30;;;4.60;;
24421;SDS011;12600;53.326;-6.298;2024-01-06T03:50:52;16.90;;;5.10;;
24421;SDS011;12600;53.326;-6.298;2024-01-06T03:53:42;15.70;;;5.20;;
24421;SDS011;12600;53.326;-6.298;2024-01-06T03:56:31;12.75;;;4.70;;
24421;SDS011;12600;53.326;-6.298;2024-01-06T03:59:21;10.07;;;4.43;;
24421;SDS011;12600;53.326;-6.298;2024-01-06T04:02:10;14.07;;;5.82;;
24421;SDS011;12600;53.326;-6.298;2024-01-06T04:05:01;11.18;;;4.82;;
24421;SDS011;12600;53.326;-6.298;2024-01-06T04:07:52;13.90;;;4.63;;
24421;SDS011;12600;53.326;-6.298;2024-01-06T04:10:41;12.30;;;4.85;;
24421;SDS011;12600;53.326;-6.298;2024-01-06T04:13:31;12.98;;;4.82;;
24421;SDS011;12600;53.326;-6.298;2024-01-06T04:16:20;12.43;;;4.85;;
24421;SDS011;12600;53.326;-6.298;2024-01-06T04:19:09;15.52;;;5.05;;
24421;SDS011;12600;53.326;-6.298;2024-01-06T04:22:01;14.15;;;5.07;;
24421;SDS011;12600;53.326;-6.298;2024-01-06T04:24:50;8.98;;;4.68;;
24421;SDS011;12600;53.326;-6.298;2024-01-06T04:27:40;29.65;;;5.20;;
24421;SDS011;12600;53.326;-6.298;2024-01-06T04:30:29;17.40;;;5.38;;
24421;SDS011;12600;53.326;-6.298;2024-01-06T04:33:19;11.88;;;4.43;;
24421;SDS011;12600;53.326;-6.298;2024-01-06T04:36:08;11.82;;;4.82;;
24421;SDS011;12600;53.326;-6.298;2024-01-06T04:38:59;18.00;;;4.97;;
24421;SDS011;12600;53.326;-6.298;2024-01-06T04:41:48;20.17;;;4.65;;
24421;SDS011;12600;53.326;-6.298;2024-01-06T04:44:38;12.80;;;4.85;;
24421;SDS011;12600;53.326;-6.298;2024-01-06T04:47:28;10.18;;;3.95;;
24421;SDS011;12600;53.326;-6.298;2024-01-06T04:50:17;13.60;;;5.50;;
24421;SDS011;12600;53.326;-6.298;2024-01-06T04:53:07;12.43;;;4.30;;
24421;SDS011;12600;53.326;-6.298;2024-01-06T04:55:58;12.32;;;4.13;;
24421;SDS011;12600;53.326;-6.298;2024-01-06T04:58:47;11.00;;;4.90;;
24421;SDS011;12600;53.326;-6.298;2024-01-06T05:01:36;17.23;;;4.60;;
24421;SDS011;12600;53.326;-6.298;2024-01-06T05:04:26;14.38;;;4.47;;
24421;SDS011;12600;53.326;-6.298;2024-01-06T05:07:15;9.20;;;3.65;;
24421;SDS011;12600;53.326;-6.298;2024-01-06T05:10:05;14.18;;;4.72;;
24421;SDS011;12600;53.326;-6.298;2024-01-06T05:12:58;8.18;;;3.97;;
24421;SDS011;12600;53.326;-6.298;2024-01-06T05:15:47;9.15;;;4.22;;
24421;SDS011;12600;53.326;-6.298;2024-01-06T05:18:36;11.68;;;4.00;;
24421;SDS011;12600;53.326;-6.298;2024-01-06T05:21:26;14.85;;;3.95;;
24421;SDS011;12600;53.326;-6.298;2024-01-06T05:24:15;12.95;;;4.05;;
24421;SDS011;12600;53.326;-6.298;2024-01-06T05:27:06;11.60;;;3.80;;
24421;SDS011;12600;53.326;-6.298;2024-01-06T05:30:01;11.43;;;3.92;;
24421;SDS011;12600;53.326;-6.298;2024-01-06T05:32:50;13.15;;;3.92;;
24421;SDS011;12600;53.326;-6.298;2024-01-06T05:35:39;11.63;;;3.45;;
24421;SDS011;12600;53.326;-6.298;2024-01-06T05:38:29;14.18;;;4.30;;
24421;SDS011;12600;53.326;-6.298;2024-01-06T05:41:18;14.77;;;4.57;;
24421;SDS011;12600;53.326;-6.298;2024-01-06T05:44:08;11.05;;;3.75;;
24421;SDS011;12600;53.326;-6.298;2024-01-06T05:46:58;12.50;;;4.38;;
24421;SDS011;12600;53.326;-6.298;2024-01-06T05:49:48;19.20;;;4.70;;
24421;SDS011;12600;53.326;-6.298;2024-01-06T05:52:37;12.48;;;4.20;;
24421;SDS011;12600;53.326;-6.298;2024-01-06T05:55:27;10.45;;;4.25;;
24421;SDS011;12600;53.326;-6.298;2024-01-06T05:58:16;12.65;;;4.25;;
24421;SDS011;12600;53.326;-6.298;2024-01-06T06:01:06;10.45;;;4.72;;
24421;SDS011;12600;53.326;-6.298;2024-01-06T06:03:56;13.07;;;4.00;;
24421;SDS011;12600;53.326;-6.298;2024-01-06T06:06:46;12.30;;;4.20;;
24421;SDS011;12600;53.326;-6.298;2024-01-06T06:09:35;13.32;;;4.75;;
24421;SDS011;12600;53.326;-6.298;2024-01-06T06:12:27;13.15;;;4.03;;
24421;SDS011;12600;53.326;-6.298;2024-01-06T06:15:16;10.32;;;4.15;;
24421;SDS011;12600;53.326;-6.298;2024-01-06T06:18:06;13.25;;;4.40;;
24421;SDS011;12600;53.326;-6.298;2024-01-06T06:20:57;8.73;;;3.80;;
24421;SDS011;12600;53.326;-6.298;2024-01-06T06:23:46;13.52;;;4.72;;
24421;SDS011;12600;53.326;-6.298;2024-01-06T06:26:35;10.93;;;4.05;;
24421;SDS011;12600;53.326;-6.298;2024-01-06T06:29:28;9.95;;;4.70;;
24421;SDS011;12600;53.326;-6.298;2024-01-06T06:32:17;12.40;;;4.95;;
24421;SDS011;12600;53.326;-6.298;2024-01-06T06:35:07;9.95;;;3.67;;
24421;SDS011;12600;53.326;-6.298;2024-01-06T06:37:58;10.25;;;3.50;;
24421;SDS011;12600;53.326;-6.298;2024-01-06T06:40:47;12.43;;;4.10;;
24421;SDS011;12600;53.326;-6.298;2024-01-06T06:43:36;19.02;;;4.80;;
24421;SDS011;12600;53.326;-6.298;2024-01-06T06:46:26;16.00;;;5.80;;
24421;SDS011;12600;53.326;-6.298;2024-01-06T06:49:15;19.98;;;4.80;;
24421;SDS011;12600;53.326;-6.298;2024-01-06T06:52:05;12.07;;;4.05;;
24421;SDS011;12600;53.326;-6.298;2024-01-06T06:54:56;11.63;;;3.33;;
24421;SDS011;12600;53.326;-6.298;2024-01-06T06:57:45;15.88;;;3.75;;
24421;SDS011;12600;53.326;-6.298;2024-01-06T07:00:34;10.25;;;2.95;;
24421;SDS011;12600;53.326;-6.298;2024-01-06T07:03:25;13.93;;;3.10;;
24421;SDS011;12600;53.326;-6.298;2024-01-06T07:06:15;11.75;;;3.22;;
24421;SDS011;12600;53.326;-6.298;2024-01-06T07:09:04;8.85;;;3.13;;
24421;SDS011;12600;53.326;-6.298;2024-01-06T07:11:55;13.43;;;3.88;;
24421;SDS011;12600;53.326;-6.298;2024-01-06T07:14:44;13.20;;;3.13;;
24421;SDS011;12600;53.326;-6.298;2024-01-06T07:17:34;16.90;;;3.80;;
24421;SDS011;12600;53.326;-6.298;2024-01-06T07:20:24;12.57;;;3.13;;
24421;SDS011;12600;53.326;-6.298;2024-01-06T07:23:13;16.13;;;3.35;;
24421;SDS011;12600;53.326;-6.298;2024-01-06T07:26:03;10.68;;;4.13;;
24421;SDS011;12600;53.326;-6.298;2024-01-06T07:28:53;9.77;;;3.15;;
24421;SDS011;12600;53.326;-6.298;2024-01-06T07:31:43;8.90;;;3.40;;
24421;SDS011;12600;53.326;-6.298;2024-01-06T07:34:32;8.23;;;2.92;;
24421;SDS011;12600;53.326;-6.298;2024-01-06T07:37:22;10.07;;;2.83;;
24421;SDS011;12600;53.326;-6.298;2024-01-06T07:40:12;16.25;;;3.38;;
24421;SDS011;12600;53.326;-6.298;2024-01-06T07:43:03;10.80;;;3.28;;
24421;SDS011;12600;53.326;-6.298;2024-01-06T07:45:54;14.82;;;3.28;;
24421;SDS011;12600;53.326;-6.298;2024-01-06T07:48:44;11.40;;;3.90;;
24421;SDS011;12600;53.326;-6.298;2024-01-06T07:51:33;8.88;;;3.40;;
24421;SDS011;12600;53.326;-6.298;2024-01-06T07:54:23;12.82;;;3.85;;
24421;SDS011;12600;53.326;-6.298;2024-01-06T07:57:12;12.30;;;3.97;;
24421;SDS011;12600;53.326;-6.298;2024-01-06T08:00:01;15.38;;;4.70;;
24421;SDS011;12600;53.326;-6.298;2024-01-06T08:03:00;23.33;;;6.20;;
24421;SDS011;12600;53.326;-6.298;2024-01-06T08:05:53;32.05;;;7.95;;
24421;SDS011;12600;53.326;-6.298;2024-01-06T08:08:42;29.50;;;8.45;;
24421;SDS011;12600;53.326;-6.298;2024-01-06T08:11:33;20.27;;;6.30;;
24421;SDS011;12600;53.326;-6.298;2024-01-06T08:14:22;20.40;;;5.97;;
24421;SDS011;12600;53.326;-6.298;2024-01-06T08:17:11;16.42;;;4.53;;
24421;SDS011;12600;53.326;-6.298;2024-01-06T08:20:08;12.45;;;3.55;;
24421;SDS011;12600;53.326;-6.298;2024-01-06T08:25:47;14.02;;;3.17;;
24421;SDS011;12600;53.326;-6.298;2024-01-06T08:28:37;11.63;;;3.53;;
24421;SDS011;12600;53.326;-6.298;2024-01-06T08:31:26;9.40;;;3.65;;
24421;SDS011;12600;53.326;-6.298;2024-01-06T08:34:16;10.02;;;3.22;;
24421;SDS011;12600;53.326;-6.298;2024-01-06T08:37:07;9.30;;;2.95;;
24421;SDS011;12600;53.326;-6.298;2024-01-06T08:39:56;11.07;;;4.40;;
24421;SDS011;12600;53.326;-6.298;2024-01-06T08:42:46;12.35;;;3.80;;
24421;SDS011;12600;53.326;-6.298;2024-01-06T08:45:35;10.43;;;3.28;;
24421;SDS011;12600;53.326;-6.298;2024-01-06T08:48:25;14.50;;;3.35;;
24421;SDS011;12600;53.326;-6.298;2024-01-06T08:51:16;14.73;;;3.47;;
24421;SDS011;12600;53.326;-6.298;2024-01-06T08:54:09;10.98;;;3.58;;
24421;SDS011;12600;53.326;-6.298;2024-01-06T08:56:58;6.50;;;2.92;;
24421;SDS011;12600;53.326;-6.298;2024-01-06T08:59:48;9.23;;;3.47;;
24421;SDS011;12600;53.326;-6.298;2024-01-06T09:02:37;10.77;;;3.45;;
24421;SDS011;12600;53.326;-6.298;2024-01-06T09:05:26;12.55;;;3.38;;
24421;SDS011;12600;53.326;-6.298;2024-01-06T09:08:16;9.98;;;3.17;;
24421;SDS011;12600;53.326;-6.298;2024-01-06T09:11:07;10.60;;;3.35;;
24421;SDS011;12600;53.326;-6.298;2024-01-06T09:13:56;11.45;;;3.65;;
24421;SDS011;12600;53.326;-6.298;2024-01-06T09:16:45;9.40;;;3.42;;
24421;SDS011;12600;53.326;-6.298;2024-01-06T09:19:35;12.98;;;3.58;;
24421;SDS011;12600;53.326;-6.298;2024-01-06T09:22:24;6.65;;;2.67;;
24421;SDS011;12600;53.326;-6.298;2024-01-06T09:25:13;10.63;;;3.00;;
24421;SDS011;12600;53.326;-6.298;2024-01-06T09:28:04;13.38;;;3.20;;
24421;SDS011;12600;53.326;-6.298;2024-01-06T09:30:54;11.05;;;3.15;;
24421;SDS011;12600;53.326;-6.298;2024-01-06T09:33:43;7.68;;;3.15;;
24421;SDS011;12600;53.326;-6.298;2024-01-06T09:36:33;14.23;;;3.20;;
24421;SDS011;12600;53.326;-6.298;2024-01-06T09:39:23;11.40;;;3.30;;
24421;SDS011;12600;53.326;-6.298;2024-01-06T09:42:12;8.93;;;2.92;;
24421;SDS011;12600;53.326;-6.298;2024-01-06T09:45:04;11.93;;;3.55;;
24421;SDS011;12600;53.326;-6.298;2024-01-06T09:47:55;10.30;;;3.42;;
24421;SDS011;12600;53.326;-6.298;2024-01-06T09:50:46;14.63;;;3.67;;
24421;SDS011;12600;53.326;-6.298;2024-01-06T09:53:39;10.13;;;4.28;;
24421;SDS011;12600;53.326;-6.298;2024-01-06T09:56:36;14.70;;;4.45;;
24421;SDS011;12600;53.326;-6.298;2024-01-06T09:59:27;10.10;;;3.88;;
24421;SDS011;12600;53.326;-6.298;2024-01-06T10:02:23;17.92;;;4.07;;
24421;SDS011;12600;53.326;-6.298;2024-01-06T10:05:13;8.13;;;3.70;;
24421;SDS011;12600;53.326;-6.298;2024-01-06T10:08:04;12.60;;;3.28;;
24421;SDS011;12600;53.326;-6.298;2024-01-06T10:10:53;9.55;;;2.70;;
24421;SDS011;12600;53.326;-6.298;2024-01-06T10:13:43;11.77;;;3.63;;
24421;SDS011;12600;53.326;-6.298;2024-01-06T10:16:33;13.70;;;3.30;;
24421;SDS011;12600;53.326;-6.298;2024-01-06T10:19:25;12.57;;;3.80;;
24421;SDS011;12600;53.326;-6.298;2024-01-06T10:22:14;7.68;;;2.40;;
24421;SDS011;12600;53.326;-6.298;2024-01-06T10:25:05;10.43;;;3.83;;
24421;SDS011;12600;53.326;-6.298;2024-01-06T10:27:56;10.55;;;3.50;;
24421;SDS011;12600;53.326;-6.298;2024-01-06T10:30:45;10.90;;;3.28;;
24421;SDS011;12600;53.326;-6.298;2024-01-06T10:33:35;9.00;;;3.13;;
24421;SDS011;12600;53.326;-6.298;2024-01-06T10:36:26;10.95;;;3.08;;
24421;SDS011;12600;53.326;-6.298;2024-01-06T10:39:16;14.02;;;3.40;;
24421;SDS011;12600;53.326;-6.298;2024-01-06T10:42:06;12.60;;;4.20;;
24421;SDS011;12600;53.326;-6.298;2024-01-06T10:44:58;12.85;;;3.80;;
24421;SDS011;12600;53.326;-6.298;2024-01-06T10:47:48;8.98;;;3.38;;
24421;SDS011;12600;53.326;-6.298;2024-01-06T10:50:38;16.25;;;3.83;;
24421;SDS011;12600;53.326;-6.298;2024-01-06T10:53:29;12.02;;;3.50;;
24421;SDS011;12600;53.326;-6.298;2024-01-06T10:56:19;10.07;;;3.10;;
24421;SDS011;12600;53.326;-6.298;2024-01-06T10:59:09;9.00;;;2.45;;
24421;SDS011;12600;53.326;-6.298;2024-01-06T11:02:01;9.95;;;3.35;;
24421;SDS011;12600;53.326;-6.298;2024-01-06T11:04:53;9.63;;;3.40;;
24421;SDS011;12600;53.326;-6.298;2024-01-06T11:07:42;8.38;;;2.80;;
24421;SDS011;12600;53.326;-6.298;2024-01-06T11:10:36;9.50;;;3.10;;
24421;SDS011;12600;53.326;-6.298;2024-01-06T11:13:29;11.77;;;3.20;;
24421;SDS011;12600;53.326;-6.298;2024-01-06T11:19:42;11.75;;;3.03;;
24421;SDS011;12600;53.326;-6.298;2024-01-06T11:22:42;10.82;;;2.92;;
24421;SDS011;12600;53.326;-6.298;2024-01-06T11:25:32;10.65;;;3.30;;
24421;SDS011;12600;53.326;-6.298;2024-01-06T11:28:25;10.38;;;3.70;;
24421;SDS011;12600;53.326;-6.298;2024-01-06T11:31:14;12.30;;;3.70;;
24421;SDS011;12600;53.326;-6.298;2024-01-06T11:34:12;13.32;;;3.65;;
24421;SDS011;12600;53.326;-6.298;2024-01-06T11:37:04;8.20;;;3.70;;
24421;SDS011;12600;53.326;-6.298;2024-01-06T11:39:56;6.97;;;3.20;;
24421;SDS011;12600;53.326;-6.298;2024-01-06T11:42:46;11.85;;;3.72;;
24421;SDS011;12600;53.326;-6.298;2024-01-06T11:45:38;9.82;;;3.50;;
24421;SDS011;12600;53.326;-6.298;2024-01-06T11:48:30;10.48;;;4.43;;
24421;SDS011;12600;53.326;-6.298;2024-01-06T11:51:20;14.43;;;3.63;;
24421;SDS011;12600;53.326;-6.298;2024-01-06T11:54:09;34.60;;;6.53;;
24421;SDS011;12600;53.326;-6.298;2024-01-06T11:56:59;65.00;;;9.18;;
24421;SDS011;12600;53.326;-6.298;2024-01-06T11:59:49;48.75;;;7.03;;
24421;SDS011;12600;53.326;-6.298;2024-01-06T12:02:40;20.30;;;4.97;;
24421;SDS011;12600;53.326;-6.298;2024-01-06T12:05:30;9.77;;;3.38;;
24421;SDS011;12600;53.326;-6.298;2024-01-06T12:08:19;11.68;;;3.53;;
24421;SDS011;12600;53.326;-6.298;2024-01-06T12:11:09;9.02;;;3.58;;
24421;SDS011;12600;53.326;-6.298;2024-01-06T12:13:58;8.85;;;3.42;;
24421;SDS011;12600;53.326;-6.298;2024-01-06T12:16:48;20.67;;;4.57;;
24421;SDS011;12600;53.326;-6.298;2024-01-06T12:19:38;13.45;;;4.07;;
24421;SDS011;12600;53.326;-6.298;2024-01-06T12:22:30;9.35;;;4.03;;
24421;SDS011;12600;53.326;-6.298;2024-01-06T12:25:20;12.20;;;4.25;;
24421;SDS011;12600;53.326;-6.298;2024-01-06T12:28:10;11.80;;;4.15;;
24421;SDS011;12600;53.326;-6.298;2024-01-06T12:30:59;15.02;;;4.63;;
24421;SDS011;12600;53.326;-6.298;2024-01-06T12:33:52;13.18;;;4.47;;
24421;SDS011;12600;53.326;-6.298;2024-01-06T12:36:44;11.52;;;3.97;;
24421;SDS011;12600;53.326;-6.298;2024-01-06T12:39:35;10.68;;;4.20;;
24421;SDS011;12600;53.326;-6.298;2024-01-06T12:42:25;13.32;;;4.22;;
24421;SDS011;12600;53.326;-6.298;2024-01-06T12:45:14;10.82;;;4.28;;
24421;SDS011;12600;53.326;-6.298;2024-01-06T12:48:04;11.57;;;4.50;;
24421;SDS011;12600;53.326;-6.298;2024-01-06T12:50:55;10.75;;;4.50;;
24421;SDS011;12600;53.326;-6.298;2024-01-06T12:53:45;13.02;;;4.53;;
24421;SDS011;12600;53.326;-6.298;2024-01-06T12:56:35;10.77;;;4.50;;
24421;SDS011;12600;53.326;-6.298;2024-01-06T12:59:24;10.75;;;4.70;;
24421;SDS011;12600;53.326;-6.298;2024-01-06T13:02:14;12.95;;;4.70;;
24421;SDS011;12600;53.326;-6.298;2024-01-06T13:05:03;16.83;;;5.65;;
24421;SDS011;12600;53.326;-6.298;2024-01-06T13:07:53;12.95;;;4.78;;
24421;SDS011;12600;53.326;-6.298;2024-01-06T13:10:44;10.38;;;4.35;;
24421;SDS011;12600;53.326;-6.298;2024-01-06T13:13:33;13.82;;;4.75;;
24421;SDS011;12600;53.326;-6.298;2024-01-06T13:16:23;11.25;;;5.03;;
24421;SDS011;12600;53.326;-6.298;2024-01-06T13:19:12;13.48;;;5.20;;
24421;SDS011;12600;53.326;-6.298;2024-01-06T13:22:02;11.15;;;4.82;;
24421;SDS011;12600;53.326;-6.298;2024-01-06T13:24:52;15.50;;;6.55;;
24421;SDS011;12600;53.326;-6.298;2024-01-06T13:27:43;13.82;;;6.22;;
24421;SDS011;12600;53.326;-6.298;2024-01-06T13:30:32;15.10;;;6.57;;
24421;SDS011;12600;53.326;-6.298;2024-01-06T13:33:22;13.02;;;5.60;;
24421;SDS011;12600;53.326;-6.298;2024-01-06T13:36:12;14.07;;;6.65;;
24421;SDS011;12600;53.326;-6.298;2024-01-06T13:39:04;37.60;;;18.00;;
24421;SDS011;12600;53.326;-6.298;2024-01-06T13:41:54;17.73;;;5.90;;
24421;SDS011;12600;53.326;-6.298;2024-01-06T13:44:45;15.60;;;4.82;;
24421;SDS011;12600;53.326;-6.298;2024-01-06T13:47:35;15.88;;;6.70;;
24421;SDS011;12600;53.326;-6.298;2024-01-06T13:50:24;16.40;;;5.57;;
24421;SDS011;12600;53.326;-6.298;2024-01-06T13:53:14;10.52;;;5.00;;
24421;SDS011;12600;53.326;-6.298;2024-01-06T13:56:04;11.93;;;4.55;;
24421;SDS011;12600;53.326;-6.298;2024-01-06T13:58:54;20.83;;;5.72;;
24421;SDS011;12600;53.326;-6.298;2024-01-06T14:01:45;16.70;;;6.28;;
24421;SDS011;12600;53.326;-6.298;2024-01-06T14:04:35;15.15;;;5.70;;
24421;SDS011;12600;53.326;-6.298;2024-01-06T14:07:24;14.70;;;5.40;;
24421;SDS011;12600;53.326;-6.298;2024-01-06T14:10:14;14.93;;;5.22;;
24421;SDS011;12600;53.326;-6.298;2024-01-06T14:13:04;19.25;;;7.45;;
24421;SDS011;12600;53.326;-6.298;2024-01-06T14:15:54;15.85;;;6.13;;
24421;SDS011;12600;53.326;-6.298;2024-01-06T14:18:45;14.60;;;6.18;;
24421;SDS011;12600;53.326;-6.298;2024-01-06T14:21:35;14.55;;;6.45;;
24421;SDS011;12600;53.326;-6.298;2024-01-06T14:24:25;18.05;;;6.90;;
24421;SDS011;12600;53.326;-6.298;2024-01-06T14:27:15;14.00;;;6.05;;
24421;SDS011;12600;53.326;-6.298;2024-01-06T14:30:05;19.30;;;6.78;;
24421;SDS011;12600;53.326;-6.298;2024-01-06T14:32:57;13.30;;;6.20;;
24421;SDS011;12600;53.326;-6.298;2024-01-06T14:35:48;13.10;;;5.60;;
24421;SDS011;12600;53.326;-6.298;2024-01-06T14:38:38;14.07;;;6.20;;
24421;SDS011;12600;53.326;-6.298;2024-01-06T14:41:27;16.33;;;6.25;;
24421;SDS011;12600;53.326;-6.298;2024-01-06T14:44:16;12.60;;;5.70;;
24421;SDS011;12600;53.326;-6.298;2024-01-06T14:47:07;13.73;;;5.57;;
24421;SDS011;12600;53.326;-6.298;2024-01-06T14:49:56;12.43;;;5.85;;
24421;SDS011;12600;53.326;-6.298;2024-01-06T14:52:47;10.73;;;5.28;;
24421;SDS011;12600;53.326;-6.298;2024-01-06T14:55:36;15.52;;;5.47;;
24421;SDS011;12600;53.326;-6.298;2024-01-06T14:58:26;21.05;;;8.93;;
24421;SDS011;12600;53.326;-6.298;2024-01-06T15:01:16;19.90;;;9.20;;
24421;SDS011;12600;53.326;-6.298;2024-01-06T15:04:05;17.08;;;7.25;;
24421;SDS011;12600;53.326;-6.298;2024-01-06T15:06:55;18.95;;;7.93;;
24421;SDS011;12600;53.326;-6.298;2024-01-06T15:09:46;17.77;;;6.35;;
24421;SDS011;12600;53.326;-6.298;2024-01-06T15:12:35;11.80;;;5.03;;
24421;SDS011;12600;53.326;-6.298;2024-01-06T15:15:24;13.48;;;6.30;;
24421;SDS011;12600;53.326;-6.298;2024-01-06T15:18:14;30.73;;;11.50;;
24421;SDS011;12600;53.326;-6.298;2024-01-06T15:21:04;25.58;;;10.57;;
24421;SDS011;12600;53.326;-6.298;2024-01-06T15:23:53;14.60;;;5.88;;
24421;SDS011;12600;53.326;-6.298;2024-01-06T15:26:44;13.20;;;6.05;;
24421;SDS011;12600;53.326;-6.298;2024-01-06T15:29:33;21.15;;;7.15;;
24421;SDS011;12600;53.326;-6.298;2024-01-06T15:32:23;13.15;;;6.63;;
24421;SDS011;12600;53.326;-6.298;2024-01-06T15:35:12;17.42;;;7.90;;
24421;SDS011;12600;53.326;-6.298;2024-01-06T15:38:01;16.63;;;6.97;;
24421;SDS011;12600;53.326;-6.298;2024-01-06T15:40:51;15.52;;;7.00;;
24421;SDS011;12600;53.326;-6.298;2024-01-06T15:43:42;15.30;;;6.72;;
24421;SDS011;12600;53.326;-6.298;2024-01-06T15:46:31;16.52;;;7.30;;
24421;SDS011;12600;53.326;-6.298;2024-01-06T15:49:20;14.13;;;6.65;;
24421;SDS011;12600;53.326;-6.298;2024-01-06T15:52:10;19.50;;;7.38;;
24421;SDS011;12600;53.326;-6.298;2024-01-06T15:54:59;17.75;;;7.63;;
24421;SDS011;12600;53.326;-6.298;2024-01-06T15:57:49;16.23;;;8.30;;
24421;SDS011;12600;53.326;-6.298;2024-01-06T16:00:39;16.77;;;8.00;;
24421;SDS011;12600;53.326;-6.298;2024-01-06T16:03:29;19.58;;;8.82;;
24421;SDS011;12600;53.326;-6.298;2024-01-06T16:06:18;20.10;;;8.32;;
24421;SDS011;12600;53.326;-6.298;2024-01-06T16:09:08;19.77;;;7.85;;
24421;SDS011;12600;53.326;-6.298;2024-01-06T16:11:58;22.40;;;9.02;;
24421;SDS011;12600;53.326;-6.298;2024-01-06T16:14:47;19.52;;;8.75;;
24421;SDS011;12600;53.326;-6.298;2024-01-06T16:17:38;18.92;;;7.93;;
24421;SDS011;12600;53.326;-6.298;2024-01-06T16:20:27;16.88;;;7.90;;
24421;SDS011;12600;53.326;-6.298;2024-01-06T16:23:17;17.38;;;9.13;;
24421;SDS011;12600;53.326;-6.298;2024-01-06T16:26:06;17.15;;;8.02;;
24421;SDS011;12600;53.326;-6.298;2024-01-06T16:28:56;17.00;;;8.02;;
24421;SDS011;12600;53.326;-6.298;2024-01-06T16:31:46;20.60;;;9.90;;
24421;SDS011;12600;53.326;-6.298;2024-01-06T16:34:37;23.83;;;12.73;;
24421;SDS011;12600;53.326;-6.298;2024-01-06T16:40:17;33.47;;;14.80;;
24421;SDS011;12600;53.326;-6.298;2024-01-06T16:43:07;35.95;;;14.25;;
24421;SDS011;12600;53.326;-6.298;2024-01-06T16:45:57;32.63;;;14.43;;